sensor_id;sensor_type;location;lat;lon;timestamp;pressure;altitude;pressure_sealevel;temperature;humidity
82949;BME280;72736;50.236;18.876;2023-12-22T00:02:38;95761.05;;;4.85;79.17
82949;BME280;72736;50.236;18.876;2023-12-22T00:07:43;95769.42;;;4.86;78.95
82949;BME280;72736;50.236;18.876;2023-12-22T00:12:50;95777.64;;;4.87;78.80
82949;BME280;72736;50.236;18.876;2023-12-22T00:17:55;95780.73;;;4.88;79.10
82949;BME280;72736;50.236;18.876;2023-12-22T00:23:01;95784.38;;;4.85;79.43
82949;BME280;72736;50.236;18.876;2023-12-22T00:28:07;95800.15;;;4.81;78.83
82949;BME280;72736;50.236;18.876;2023-12-22T00:33:12;95804.63;;;4.76;78.65
82949;BME280;72736;50.236;18.876;2023-12-22T00:38:18;95819.42;;;4.71;78.50
82949;BME280;72736;50.236;18.876;2023-12-22T00:43:24;95813.25;;;4.67;77.81
82949;BME280;72736;50.236;18.876;2023-12-22T00:48:29;95819.23;;;4.67;78.16
82949;BME280;72736;50.236;18.876;2023-12-22T00:53:35;95830.58;;;4.68;78.19
82949;BME280;72736;50.236;18.876;2023-12-22T00:58:41;95839.27;;;4.67;77.61
82949;BME280;72736;50.236;18.876;2023-12-22T01:03:53;95840.30;;;4.64;77.64
82949;BME280;72736;50.236;18.876;2023-12-22T01:08:58;95846.60;;;4.62;77.69
82949;BME280;72736;50.236;18.876;2023-12-22T01:14:04;95851.85;;;4.61;77.77
82949;BME280;72736;50.236;18.876;2023-12-22T01:19:11;95853.89;;;4.59;77.44
82949;BME280;72736;50.236;18.876;2023-12-22T01:24:17;95858.77;;;4.53;77.17
82949;BME280;72736;50.236;18.876;2023-12-22T01:29:23;95874.85;;;4.49;77.23
82949;BME280;72736;50.236;18.876;2023-12-22T01:34:28;95880.17;;;4.47;77.35
82949;BME280;72736;50.236;18.876;2023-12-22T01:39:34;95883.13;;;4.46;77.22
82949;BME280;72736;50.236;18.876;2023-12-22T01:44:40;95885.62;;;4.46;77.20
82949;BME280;72736;50.236;18.876;2023-12-22T01:49:45;95872.84;;;4.45;76.93
82949;BME280;72736;50.236;18.876;2023-12-22T01:54:52;95870.40;;;4.45;76.86
82949;BME280;72736;50.236;18.876;2023-12-22T02:00:00;95865.02;;;4.42;76.45
82949;BME280;72736;50.236;18.876;2023-12-22T02:05:07;95859.05;;;4.38;76.18
82949;BME280;72736;50.236;18.876;2023-12-22T02:10:13;95844.93;;;4.32;75.69
82949;BME280;72736;50.236;18.876;2023-12-22T02:15:19;95839.30;;;4.25;75.32
82949;BME280;72736;50.236;18.876;2023-12-22T02:20:25;95857.02;;;4.21;75.45
82949;BME280;72736;50.236;18.876;2023-12-22T02:25:30;95843.98;;;4.17;74.90
82949;BME280;72736;50.236;18.876;2023-12-22T02:30:41;95840.98;;;4.14;74.68
82949;BME280;72736;50.236;18.876;2023-12-22T02:35:50;95845.63;;;4.12;74.12
82949;BME280;72736;50.236;18.876;2023-12-22T02:40:57;95843.66;;;4.11;74.07
82949;BME280;72736;50.236;18.876;2023-12-22T02:46:04;95847.43;;;4.12;73.44
82949;BME280;72736;50.236;18.876;2023-12-22T02:51:10;95846.64;;;4.13;73.04
82949;BME280;72736;50.236;18.876;2023-12-22T02:56:15;95867.75;;;4.15;72.09
82949;BME280;72736;50.236;18.876;2023-12-22T03:01:21;95867.95;;;4.14;71.26
82949;BME280;72736;50.236;18.876;2023-12-22T03:06:27;95876.23;;;4.11;70.70
82949;BME280;72736;50.236;18.876;2023-12-22T03:11:32;95884.85;;;4.05;70.28
82949;BME280;72736;50.236;18.876;2023-12-22T03:16:38;95881.83;;;4.00;69.87
82949;BME280;72736;50.236;18.876;2023-12-22T03:21:46;95878.55;;;3.97;69.41
82949;BME280;72736;50.236;18.876;2023-12-22T03:26:53;95874.48;;;3.97;69.57
82949;BME280;72736;50.236;18.876;2023-12-22T03:31:58;95872.52;;;3.98;69.57
82949;BME280;72736;50.236;18.876;2023-12-22T03:37:04;95872.38;;;3.99;69.31
82949;BME280;72736;50.236;18.876;2023-12-22T03:42:10;95877.02;;;4.01;69.39
82949;BME280;72736;50.236;18.876;2023-12-22T03:47:15;95878.25;;;4.02;69.28
82949;BME280;72736;50.236;18.876;2023-12-22T03:52:21;95881.73;;;4.01;68.88
82949;BME280;72736;50.236;18.876;2023-12-22T03:57:27;95884.48;;;4.00;68.81
82949;BME280;72736;50.236;18.876;2023-12-22T04:02:33;95866.27;;;4.01;68.39
82949;BME280;72736;50.236;18.876;2023-12-22T04:07:39;95851.35;;;4.03;68.75
82949;BME280;72736;50.236;18.876;2023-12-22T04:12:45;95839.76;;;4.08;68.55
82949;BME280;72736;50.236;18.876;2023-12-22T04:17:50;95839.38;;;4.13;68.09
82949;BME280;72736;50.236;18.876;2023-12-22T04:22:57;95850.24;;;4.14;67.94
82949;BME280;72736;50.236;18.876;2023-12-22T04:28:02;95871.48;;;4.12;67.29
82949;BME280;72736;50.236;18.876;2023-12-22T04:33:08;95934.46;;;4.07;68.12
82949;BME280;72736;50.236;18.876;2023-12-22T04:38:14;95950.88;;;3.74;70.67
82949;BME280;72736;50.236;18.876;2023-12-22T04:43:20;95951.66;;;3.36;71.55
82949;BME280;72736;50.236;18.876;2023-12-22T04:48:25;95957.69;;;3.03;72.55
82949;BME280;72736;50.236;18.876;2023-12-22T04:53:31;95969.47;;;2.81;73.30
82949;BME280;72736;50.236;18.876;2023-12-22T04:58:37;95965.73;;;2.64;74.13
82949;BME280;72736;50.236;18.876;2023-12-22T05:03:42;95956.02;;;2.48;74.83
82949;BME280;72736;50.236;18.876;2023-12-22T05:08:48;95983.73;;;2.38;75.04
82949;BME280;72736;50.236;18.876;2023-12-22T05:13:54;95979.54;;;2.29;75.35
82949;BME280;72736;50.236;18.876;2023-12-22T05:19:01;95974.48;;;2.21;75.87
82949;BME280;72736;50.236;18.876;2023-12-22T05:24:07;95969.54;;;2.20;76.06
82949;BME280;72736;50.236;18.876;2023-12-22T05:29:13;95957.02;;;2.18;76.60
82949;BME280;72736;50.236;18.876;2023-12-22T05:34:19;95949.02;;;2.19;76.60
82949;BME280;72736;50.236;18.876;2023-12-22T05:39:25;95955.33;;;2.20;76.29
82949;BME280;72736;50.236;18.876;2023-12-22T05:44:31;95951.79;;;2.22;76.32
82949;BME280;72736;50.236;18.876;2023-12-22T05:49:40;95942.98;;;2.23;76.50
82949;BME280;72736;50.236;18.876;2023-12-22T05:54:46;95939.08;;;2.24;75.55
82949;BME280;72736;50.236;18.876;2023-12-22T05:59:52;95927.07;;;2.19;75.18
82949;BME280;72736;50.236;18.876;2023-12-22T06:04:58;95937.27;;;2.15;74.72
82949;BME280;72736;50.236;18.876;2023-12-22T06:10:07;95951.94;;;2.15;74.47
82949;BME280;72736;50.236;18.876;2023-12-22T06:15:14;95954.84;;;2.14;74.78
82949;BME280;72736;50.236;18.876;2023-12-22T06:20:20;95960.59;;;2.17;74.38
82949;BME280;72736;50.236;18.876;2023-12-22T06:25:25;95978.94;;;2.18;74.61
82949;BME280;72736;50.236;18.876;2023-12-22T06:30:31;95979.71;;;2.19;74.56
82949;BME280;72736;50.236;18.876;2023-12-22T06:35:37;95979.48;;;2.21;74.57
82949;BME280;72736;50.236;18.876;2023-12-22T06:40:45;95990.09;;;2.23;74.54
82949;BME280;72736;50.236;18.876;2023-12-22T06:45:51;95998.11;;;2.25;74.60
82949;BME280;72736;50.236;18.876;2023-12-22T06:50:59;96001.30;;;2.26;74.86
82949;BME280;72736;50.236;18.876;2023-12-22T06:56:16;96005.34;;;2.25;75.06
82949;BME280;72736;50.236;18.876;2023-12-22T07:01:23;95992.40;;;2.23;74.86
82949;BME280;72736;50.236;18.876;2023-12-22T07:06:30;95996.30;;;2.21;74.55
82949;BME280;72736;50.236;18.876;2023-12-22T07:11:36;95988.90;;;2.22;74.89
82949;BME280;72736;50.236;18.876;2023-12-22T07:16:42;95983.10;;;2.22;74.23
82949;BME280;72736;50.236;18.876;2023-12-22T07:21:48;95985.96;;;2.22;74.24
82949;BME280;72736;50.236;18.876;2023-12-22T07:26:54;95997.88;;;2.24;74.43
82949;BME280;72736;50.236;18.876;2023-12-22T07:32:00;96006.63;;;2.26;74.31
82949;BME280;72736;50.236;18.876;2023-12-22T07:37:06;96014.49;;;2.28;74.16
82949;BME280;72736;50.236;18.876;2023-12-22T07:42:14;96013.84;;;2.30;73.84
82949;BME280;72736;50.236;18.876;2023-12-22T07:47:20;96014.77;;;2.35;73.83
82949;BME280;72736;50.236;18.876;2023-12-22T07:52:26;96030.23;;;2.38;73.68
82949;BME280;72736;50.236;18.876;2023-12-22T07:57:33;96032.23;;;2.46;73.62
82949;BME280;72736;50.236;18.876;2023-12-22T08:02:39;96030.70;;;2.54;73.38
82949;BME280;72736;50.236;18.876;2023-12-22T08:07:44;96019.48;;;2.56;73.37
82949;BME280;72736;50.236;18.876;2023-12-22T08:12:50;96016.85;;;2.51;73.23
82949;BME280;72736;50.236;18.876;2023-12-22T08:17:56;96018.31;;;2.52;73.41
82949;BME280;72736;50.236;18.876;2023-12-22T08:23:02;96030.34;;;2.49;73.22
82949;BME280;72736;50.236;18.876;2023-12-22T08:28:14;96049.30;;;2.51;73.86
82949;BME280;72736;50.236;18.876;2023-12-22T08:33:20;96068.54;;;2.51;73.49
82949;BME280;72736;50.236;18.876;2023-12-22T08:38:26;96073.05;;;2.49;73.82
82949;BME280;72736;50.236;18.876;2023-12-22T08:43:32;96058.29;;;2.48;74.06
82949;BME280;72736;50.236;18.876;2023-12-22T08:48:38;96051.09;;;2.51;74.31
82949;BME280;72736;50.236;18.876;2023-12-22T08:53:44;96053.33;;;2.59;74.67
82949;BME280;72736;50.236;18.876;2023-12-22T08:58:51;96060.47;;;2.65;74.28
82949;BME280;72736;50.236;18.876;2023-12-22T09:03:57;96051.23;;;2.67;74.29
82949;BME280;72736;50.236;18.876;2023-12-22T09:09:02;96036.94;;;2.67;73.97
82949;BME280;72736;50.236;18.876;2023-12-22T09:14:09;96028.64;;;2.67;74.05
82949;BME280;72736;50.236;18.876;2023-12-22T09:19:15;96031.41;;;2.71;74.01
82949;BME280;72736;50.236;18.876;2023-12-22T09:24:21;96042.03;;;2.73;73.97
82949;BME280;72736;50.236;18.876;2023-12-22T09:29:27;96036.82;;;2.77;73.96
82949;BME280;72736;50.236;18.876;2023-12-22T09:34:32;96029.88;;;2.79;73.83
82949;BME280;72736;50.236;18.876;2023-12-22T09:39:38;96037.85;;;2.87;76.08
82949;BME280;72736;50.236;18.876;2023-12-22T09:44:44;96043.97;;;3.30;79.63
82949;BME280;72736;50.236;18.876;2023-12-22T09:49:53;96049.39;;;3.70;77.45
82949;BME280;72736;50.236;18.876;2023-12-22T09:54:59;96049.26;;;4.02;76.49
82949;BME280;72736;50.236;18.876;2023-12-22T10:00:08;96046.39;;;4.10;73.26
82949;BME280;72736;50.236;18.876;2023-12-22T10:05:17;96030.81;;;3.98;72.03
82949;BME280;72736;50.236;18.876;2023-12-22T10:10:23;96015.67;;;3.84;71.78
82949;BME280;72736;50.236;18.876;2023-12-22T10:15:29;96012.89;;;3.74;71.11
82949;BME280;72736;50.236;18.876;2023-12-22T10:20:36;95999.74;;;3.67;71.10
82949;BME280;72736;50.236;18.876;2023-12-22T10:25:42;95998.37;;;3.61;71.20
82949;BME280;72736;50.236;18.876;2023-12-22T10:30:49;95988.41;;;3.53;70.77
82949;BME280;72736;50.236;18.876;2023-12-22T10:35:54;95997.82;;;3.45;70.94
82949;BME280;72736;50.236;18.876;2023-12-22T10:41:00;96017.05;;;3.37;71.17
82949;BME280;72736;50.236;18.876;2023-12-22T10:46:07;96036.09;;;3.21;72.50
82949;BME280;72736;50.236;18.876;2023-12-22T10:51:16;96039.42;;;2.95;73.86
82949;BME280;72736;50.236;18.876;2023-12-22T10:56:23;96041.40;;;2.68;74.64
82949;BME280;72736;50.236;18.876;2023-12-22T11:01:31;96033.19;;;2.54;75.35
82949;BME280;72736;50.236;18.876;2023-12-22T11:06:39;96027.75;;;2.43;75.81
82949;BME280;72736;50.236;18.876;2023-12-22T11:11:47;96013.00;;;2.43;76.13
82949;BME280;72736;50.236;18.876;2023-12-22T11:16:55;96009.80;;;2.47;76.45
82949;BME280;72736;50.236;18.876;2023-12-22T11:22:03;96013.11;;;2.46;76.67
82949;BME280;72736;50.236;18.876;2023-12-22T11:27:10;96008.23;;;2.43;76.86
82949;BME280;72736;50.236;18.876;2023-12-22T11:32:19;96009.99;;;2.49;77.53
82949;BME280;72736;50.236;18.876;2023-12-22T11:37:24;96009.41;;;2.65;77.83
82949;BME280;72736;50.236;18.876;2023-12-22T11:42:33;96000.54;;;2.85;77.94
82949;BME280;72736;50.236;18.876;2023-12-22T11:47:41;95990.92;;;3.07;78.37
82949;BME280;72736;50.236;18.876;2023-12-22T11:52:47;95978.36;;;3.18;77.99
82949;BME280;72736;50.236;18.876;2023-12-22T11:57:53;95974.50;;;3.27;77.22
82949;BME280;72736;50.236;18.876;2023-12-22T12:03:07;95986.30;;;3.40;76.59
82949;BME280;72736;50.236;18.876;2023-12-22T12:08:13;95976.60;;;3.52;75.79
82949;BME280;72736;50.236;18.876;2023-12-22T12:13:23;95980.63;;;3.50;74.69
82949;BME280;72736;50.236;18.876;2023-12-22T12:18:30;95976.83;;;3.50;73.97
82949;BME280;72736;50.236;18.876;2023-12-22T12:23:39;95968.88;;;3.50;73.00
82949;BME280;72736;50.236;18.876;2023-12-22T12:28:47;95965.20;;;3.52;72.28
82949;BME280;72736;50.236;18.876;2023-12-22T12:33:53;95963.64;;;3.53;71.99
82949;BME280;72736;50.236;18.876;2023-12-22T12:39:06;95954.71;;;3.48;70.80
82949;BME280;72736;50.236;18.876;2023-12-22T12:44:13;95985.04;;;3.41;70.70
82949;BME280;72736;50.236;18.876;2023-12-22T12:49:20;96004.36;;;3.28;71.39
82949;BME280;72736;50.236;18.876;2023-12-22T12:54:32;96004.02;;;3.02;72.52
82949;BME280;72736;50.236;18.876;2023-12-22T12:59:38;96000.35;;;2.87;73.14
82949;BME280;72736;50.236;18.876;2023-12-22T13:04:44;96005.90;;;2.80;73.18
82949;BME280;72736;50.236;18.876;2023-12-22T13:09:50;96007.71;;;2.79;73.14
82949;BME280;72736;50.236;18.876;2023-12-22T13:15:03;96008.13;;;2.78;72.56
82949;BME280;72736;50.236;18.876;2023-12-22T13:20:11;96019.03;;;2.78;72.64
82949;BME280;72736;50.236;18.876;2023-12-22T13:25:18;96019.27;;;2.83;72.08
82949;BME280;72736;50.236;18.876;2023-12-22T13:30:35;96020.59;;;2.83;70.50
82949;BME280;72736;50.236;18.876;2023-12-22T13:35:42;96025.59;;;2.84;69.53
82949;BME280;72736;50.236;18.876;2023-12-22T13:40:48;96029.29;;;2.84;68.32
82949;BME280;72736;50.236;18.876;2023-12-22T13:45:54;96022.70;;;2.82;67.09
82949;BME280;72736;50.236;18.876;2023-12-22T13:51:02;96020.59;;;2.80;66.27
82949;BME280;72736;50.236;18.876;2023-12-22T13:56:08;96019.05;;;2.77;65.62
82949;BME280;72736;50.236;18.876;2023-12-22T14:01:17;96022.73;;;2.74;65.10
82949;BME280;72736;50.236;18.876;2023-12-22T14:06:23;96026.59;;;2.73;65.07
82949;BME280;72736;50.236;18.876;2023-12-22T14:11:29;96032.14;;;2.73;64.99
82949;BME280;72736;50.236;18.876;2023-12-22T14:16:36;96030.82;;;2.75;65.09
82949;BME280;72736;50.236;18.876;2023-12-22T14:21:42;96027.80;;;2.75;64.76
82949;BME280;72736;50.236;18.876;2023-12-22T14:26:57;96026.33;;;2.76;64.65
82949;BME280;72736;50.236;18.876;2023-12-22T14:32:03;96029.02;;;2.78;64.46
82949;BME280;72736;50.236;18.876;2023-12-22T14:37:12;96019.48;;;2.78;63.99
82949;BME280;72736;50.236;18.876;2023-12-22T14:42:21;96026.50;;;2.77;64.00
82949;BME280;72736;50.236;18.876;2023-12-22T14:47:27;96030.48;;;2.75;64.09
82949;BME280;72736;50.236;18.876;2023-12-22T14:52:33;96036.12;;;2.74;64.23
82949;BME280;72736;50.236;18.876;2023-12-22T14:57:39;96049.96;;;2.76;64.41
82949;BME280;72736;50.236;18.876;2023-12-22T15:02:45;96050.08;;;2.76;64.50
82949;BME280;72736;50.236;18.876;2023-12-22T15:07:51;96045.75;;;2.77;64.47
82949;BME280;72736;50.236;18.876;2023-12-22T15:12:58;96046.32;;;2.79;64.84
82949;BME280;72736;50.236;18.876;2023-12-22T15:18:05;96046.04;;;2.80;65.01
82949;BME280;72736;50.236;18.876;2023-12-22T15:23:16;96047.46;;;2.80;65.22
82949;BME280;72736;50.236;18.876;2023-12-22T15:28:22;96041.30;;;2.79;65.24
82949;BME280;72736;50.236;18.876;2023-12-22T15:33:28;96046.27;;;2.76;64.78
82949;BME280;72736;50.236;18.876;2023-12-22T15:38:34;96050.58;;;2.81;66.06
82949;BME280;72736;50.236;18.876;2023-12-22T15:43:39;96065.19;;;2.92;65.07
82949;BME280;72736;50.236;18.876;2023-12-22T15:48:45;96065.87;;;2.89;63.35
82949;BME280;72736;50.236;18.876;2023-12-22T15:53:51;96073.68;;;2.86;62.72
82949;BME280;72736;50.236;18.876;2023-12-22T15:58:57;96070.38;;;2.82;62.26
82949;BME280;72736;50.236;18.876;2023-12-22T16:04:02;96074.91;;;2.78;61.79
82949;BME280;72736;50.236;18.876;2023-12-22T16:09:08;96078.48;;;2.75;61.69
82949;BME280;72736;50.236;18.876;2023-12-22T16:14:14;96075.95;;;2.75;62.35
82949;BME280;72736;50.236;18.876;2023-12-22T16:19:20;96082.30;;;2.75;62.43
82949;BME280;72736;50.236;18.876;2023-12-22T16:24:26;96089.35;;;2.76;62.73
82949;BME280;72736;50.236;18.876;2023-12-22T16:29:41;96102.21;;;2.77;62.93
82949;BME280;72736;50.236;18.876;2023-12-22T16:34:50;96098.71;;;2.76;63.18
82949;BME280;72736;50.236;18.876;2023-12-22T16:40:00;96088.62;;;2.71;63.25
82949;BME280;72736;50.236;18.876;2023-12-22T16:45:18;96091.90;;;2.67;63.36
82949;BME280;72736;50.236;18.876;2023-12-22T16:50:24;96115.23;;;2.65;64.02
82949;BME280;72736;50.236;18.876;2023-12-22T16:55:30;96114.70;;;2.62;64.19
82949;BME280;72736;50.236;18.876;2023-12-22T17:00:37;96113.38;;;2.59;64.21
82949;BME280;72736;50.236;18.876;2023-12-22T17:05:43;96111.30;;;2.57;63.63
82949;BME280;72736;50.236;18.876;2023-12-22T17:10:49;96110.60;;;2.56;63.55
82949;BME280;72736;50.236;18.876;2023-12-22T17:15:55;96112.00;;;2.54;63.67
82949;BME280;72736;50.236;18.876;2023-12-22T17:21:00;96120.47;;;2.54;63.86
82949;BME280;72736;50.236;18.876;2023-12-22T17:26:09;96123.67;;;2.54;63.74
82949;BME280;72736;50.236;18.876;2023-12-22T17:31:15;96130.44;;;2.54;63.87
82949;BME280;72736;50.236;18.876;2023-12-22T17:36:21;96137.08;;;2.53;64.13
82949;BME280;72736;50.236;18.876;2023-12-22T17:41:28;96132.83;;;2.54;64.30
82949;BME280;72736;50.236;18.876;2023-12-22T17:46:35;96131.25;;;2.55;64.48
82949;BME280;72736;50.236;18.876;2023-12-22T17:51:40;96125.68;;;2.51;64.32
82949;BME280;72736;50.236;18.876;2023-12-22T17:56:46;96137.70;;;2.45;64.40
82949;BME280;72736;50.236;18.876;2023-12-22T18:01:52;96147.31;;;2.41;64.61
82949;BME280;72736;50.236;18.876;2023-12-22T18:06:58;96143.30;;;2.38;65.17
82949;BME280;72736;50.236;18.876;2023-12-22T18:12:07;96143.17;;;2.37;65.20
82949;BME280;72736;50.236;18.876;2023-12-22T18:17:13;96138.29;;;2.34;65.63
82949;BME280;72736;50.236;18.876;2023-12-22T18:22:19;96137.50;;;2.32;65.61
82949;BME280;72736;50.236;18.876;2023-12-22T18:27:24;96143.60;;;2.31;65.19
82949;BME280;72736;50.236;18.876;2023-12-22T18:32:31;96142.81;;;2.29;65.31
82949;BME280;72736;50.236;18.876;2023-12-22T18:37:39;96142.34;;;2.29;65.68
82949;BME280;72736;50.236;18.876;2023-12-22T18:42:44;96147.59;;;2.30;66.32
82949;BME280;72736;50.236;18.876;2023-12-22T18:47:50;96131.83;;;2.31;66.77
82949;BME280;72736;50.236;18.876;2023-12-22T18:52:56;96133.05;;;2.32;67.02
82949;BME280;72736;50.236;18.876;2023-12-22T18:58:02;96123.11;;;2.31;67.40
82949;BME280;72736;50.236;18.876;2023-12-22T19:03:08;96126.10;;;2.30;67.28
82949;BME280;72736;50.236;18.876;2023-12-22T19:08:15;96133.55;;;2.27;67.36
82949;BME280;72736;50.236;18.876;2023-12-22T19:13:21;96137.05;;;2.23;67.54
82949;BME280;72736;50.236;18.876;2023-12-22T19:18:27;96128.93;;;2.21;67.50
82949;BME280;72736;50.236;18.876;2023-12-22T19:23:33;96138.76;;;2.19;67.45
82949;BME280;72736;50.236;18.876;2023-12-22T19:28:39;96148.66;;;2.19;67.13
82949;BME280;72736;50.236;18.876;2023-12-22T19:33:45;96157.19;;;2.19;67.11
82949;BME280;72736;50.236;18.876;2023-12-22T19:38:51;96162.23;;;2.18;67.11
82949;BME280;72736;50.236;18.876;2023-12-22T19:43:56;96160.01;;;2.16;67.22
82949;BME280;72736;50.236;18.876;2023-12-22T19:49:02;96174.71;;;2.17;67.88
82949;BME280;72736;50.236;18.876;2023-12-22T19:54:08;96184.91;;;2.14;67.45
82949;BME280;72736;50.236;18.876;2023-12-22T19:59:14;96182.34;;;2.13;67.54
82949;BME280;72736;50.236;18.876;2023-12-22T20:04:20;96160.89;;;2.10;67.81
82949;BME280;72736;50.236;18.876;2023-12-22T20:09:26;96164.78;;;2.05;67.00
82949;BME280;72736;50.236;18.876;2023-12-22T20:14:32;96158.20;;;2.02;67.20
82949;BME280;72736;50.236;18.876;2023-12-22T20:19:38;96150.42;;;1.99;66.96
82949;BME280;72736;50.236;18.876;2023-12-22T20:24:44;96160.36;;;1.97;66.86
82949;BME280;72736;50.236;18.876;2023-12-22T20:29:51;96163.40;;;1.97;66.74
82949;BME280;72736;50.236;18.876;2023-12-22T20:34:57;96163.42;;;1.95;66.31
82949;BME280;72736;50.236;18.876;2023-12-22T20:40:07;96165.55;;;1.92;66.45
82949;BME280;72736;50.236;18.876;2023-12-22T20:45:14;96164.61;;;1.90;66.31
82949;BME280;72736;50.236;18.876;2023-12-22T20:50:20;96149.89;;;1.88;65.85
82949;BME280;72736;50.236;18.876;2023-12-22T20:55:25;96152.19;;;1.87;65.87
82949;BME280;72736;50.236;18.876;2023-12-22T21:00:31;96160.52;;;1.85;65.91
82949;BME280;72736;50.236;18.876;2023-12-22T21:05:38;96172.11;;;1.86;65.72
82949;BME280;72736;50.236;18.876;2023-12-22T21:10:44;96177.12;;;1.90;65.80
82949;BME280;72736;50.236;18.876;2023-12-22T21:15:50;96174.08;;;1.92;65.58
82949;BME280;72736;50.236;18.876;2023-12-22T21:20:56;96183.03;;;1.94;65.87
82949;BME280;72736;50.236;18.876;2023-12-22T21:26:02;96178.85;;;1.98;65.67
82949;BME280;72736;50.236;18.876;2023-12-22T21:31:08;96176.23;;;1.99;65.48
82949;BME280;72736;50.236;18.876;2023-12-22T21:36:21;96184.17;;;1.99;65.04
82949;BME280;72736;50.236;18.876;2023-12-22T21:41:27;96174.54;;;1.99;65.38
82949;BME280;72736;50.236;18.876;2023-12-22T21:46:33;96177.42;;;1.99;64.69
82949;BME280;72736;50.236;18.876;2023-12-22T21:51:39;96174.56;;;2.00;65.35
82949;BME280;72736;50.236;18.876;2023-12-22T21:56:46;96163.84;;;2.02;64.98
82949;BME280;72736;50.236;18.876;2023-12-22T22:01:52;96159.59;;;2.02;64.69
82949;BME280;72736;50.236;18.876;2023-12-22T22:06:57;96153.20;;;2.00;64.95
82949;BME280;72736;50.236;18.876;2023-12-22T22:12:04;96157.16;;;1.98;64.94
82949;BME280;72736;50.236;18.876;2023-12-22T22:17:09;96172.48;;;1.95;64.68
82949;BME280;72736;50.236;18.876;2023-12-22T22:22:15;96185.61;;;1.92;65.31
82949;BME280;72736;50.236;18.876;2023-12-22T22:27:21;96192.15;;;1.86;65.14
82949;BME280;72736;50.236;18.876;2023-12-22T22:32:27;96190.67;;;1.82;65.55
82949;BME280;72736;50.236;18.876;2023-12-22T22:37:33;96191.70;;;1.77;65.52
82949;BME280;72736;50.236;18.876;2023-12-22T22:42:39;96191.32;;;1.73;65.43
82949;BME280;72736;50.236;18.876;2023-12-22T22:47:45;96189.85;;;1.71;65.91
82949;BME280;72736;50.236;18.876;2023-12-22T22:52:51;96203.44;;;1.68;65.80
82949;BME280;72736;50.236;18.876;2023-12-22T22:57:57;96177.98;;;1.67;65.58
82949;BME280;72736;50.236;18.876;2023-12-22T23:03:03;96181.40;;;1.65;65.15
82949;BME280;72736;50.236;18.876;2023-12-22T23:08:09;96194.99;;;1.66;65.43
82949;BME280;72736;50.236;18.876;2023-12-22T23:13:15;96213.38;;;1.66;65.84
82949;BME280;72736;50.236;18.876;2023-12-22T23:18:21;96218.27;;;1.68;65.54
82949;BME280;72736;50.236;18.876;2023-12-22T23:23:26;96207.42;;;1.69;65.71
82949;BME280;72736;50.236;18.876;2023-12-22T23:28:32;96197.33;;;1.68;65.55
82949;BME280;72736;50.236;18.876;2023-12-22T23:33:38;96200.64;;;1.68;65.61
82949;BME280;72736;50.236;18.876;2023-12-22T23:38:44;96194.85;;;1.71;65.92
82949;BME280;72736;50.236;18.876;2023-12-22T23:43:49;96205.02;;;1.72;65.81
82949;BME280;72736;50.236;18.876;2023-12-22T23:48:55;96208.48;;;1.73;66.33
82949;BME280;72736;50.236;18.876;2023-12-22T23:54:02;96223.43;;;1.73;66.18
82949;BME280;72736;50.236;18.876;2023-12-22T23:59:07;96232.95;;;1.72;65.93
